createdAt,value
2018-11-21T00:01:26.109Z,0.64
2018-11-21T00:04:13.897Z,0.68
2018-11-21T00:06:42.559Z,0.71
2018-11-21T00:09:30.405Z,0.77
2018-11-21T00:11:59.116Z,0.72
2018-11-21T00:14:47.120Z,0.67
2018-11-21T00:17:16.035Z,0.63
2018-11-21T00:20:03.858Z,0.52
2018-11-21T00:22:51.687Z,0.54
2018-11-21T00:25:20.597Z,0.52
2018-11-21T00:28:08.610Z,0.61
2018-11-21T00:30:56.042Z,0.58
2018-11-21T00:33:44.483Z,0.44
2018-11-21T00:41:55.632Z,0.75
2018-11-21T00:44:24.278Z,0.66
2018-11-21T00:46:53.191Z,0.62
2018-11-21T00:49:41.023Z,0.65
2018-11-21T00:52:28.800Z,0.68
2018-11-21T00:55:16.582Z,0.62
2018-11-21T00:58:04.367Z,0.63
2018-11-21T01:00:33.034Z,0.63
2018-11-21T01:03:01.923Z,0.76
2018-11-21T01:08:26.384Z,0.84
2018-11-21T01:10:55.300Z,0.90
2018-11-21T01:13:24.292Z,0.94
2018-11-21T01:16:12.106Z,0.81
2018-11-21T01:18:41.291Z,0.68
2018-11-21T01:24:20.164Z,0.79
2018-11-21T01:26:49.375Z,0.89
2018-11-21T01:29:37.186Z,0.90
2018-11-21T01:32:06.053Z,0.89
2018-11-21T01:34:34.981Z,0.81
2018-11-21T01:37:22.815Z,0.77
2018-11-21T01:40:10.589Z,0.79
2018-11-21T01:42:39.293Z,0.68
2018-11-21T01:45:27.006Z,0.74
2018-11-21T01:47:55.691Z,0.70
2018-11-21T01:50:25.579Z,0.58
2018-11-21T01:55:49.363Z,0.74
2018-11-21T01:58:37.122Z,0.76
2018-11-21T02:01:05.849Z,0.72
2018-11-21T02:03:34.475Z,0.77
2018-11-21T02:06:22.266Z,0.81
2018-11-21T02:09:10.068Z,0.64
2018-11-21T02:11:57.855Z,0.54
2018-11-21T02:14:45.635Z,0.52
2018-11-21T02:17:33.413Z,0.52
2018-11-21T02:20:21.597Z,0.59
2018-11-21T02:23:10.006Z,0.59
2018-11-21T02:25:58.278Z,0.61
2018-11-21T02:29:05.551Z,0.53
2018-11-21T02:31:53.748Z,0.66
2018-11-21T02:37:16.837Z,0.62
2018-11-21T02:40:04.650Z,0.72
2018-11-21T02:42:52.402Z,0.74
2018-11-21T02:45:21.127Z,0.78
2018-11-21T02:48:08.899Z,0.81
2018-11-21T02:50:37.643Z,0.61
2018-11-21T02:53:06.426Z,0.56
2018-11-21T02:55:37.107Z,0.42
2018-11-21T02:58:24.875Z,0.45
2018-11-21T03:00:53.517Z,0.63
2018-11-21T03:03:22.387Z,0.59
2018-11-21T03:05:51.264Z,0.45
2018-11-21T03:08:20.166Z,0.34
2018-11-21T03:11:09.027Z,0.36
2018-11-21T03:13:59.044Z,0.47
2018-11-21T03:16:47.782Z,0.44
2018-11-21T03:22:12.064Z,0.41
2018-11-21T03:24:59.818Z,0.32
2018-11-21T03:27:28.490Z,0.25
2018-11-21T03:29:57.177Z,0.17
2018-11-21T03:32:26.383Z,0.28
2018-11-21T03:35:34.443Z,0.26
2018-11-21T03:38:24.464Z,0.11
2018-11-21T03:41:13.998Z,0.11
2018-11-21T03:43:42.815Z,0.10
2018-11-21T03:46:11.694Z,0.05
2018-11-21T03:48:59.471Z,0.11
2018-11-21T03:51:28.329Z,0.13
2018-11-21T03:54:16.082Z,0.22
2018-11-21T03:57:03.973Z,0.22
2018-11-21T03:59:32.831Z,0.22
2018-11-21T04:02:01.773Z,0.17
2018-11-21T04:04:49.540Z,0.17
2018-11-21T04:07:39.175Z,0.14
2018-11-21T04:10:30.238Z,0.08
2018-11-21T04:13:18.652Z,-0.02
2018-11-21T04:16:07.422Z,-0.11
2018-11-21T04:18:36.108Z,-0.14
2018-11-21T04:21:05.499Z,0.00
2018-11-21T04:23:36.506Z,-0.10
2018-11-21T04:26:05.522Z,-0.14
2018-11-21T04:28:35.482Z,-0.17
2018-11-21T04:31:43.489Z,-0.02
2018-11-21T04:34:15.092Z,-0.05
2018-11-21T04:36:44.532Z,-0.20
2018-11-21T04:39:32.305Z,-0.13
2018-11-21T04:42:01.172Z,-0.20
2018-11-21T04:44:30.109Z,-0.18
2018-11-21T04:47:17.892Z,-0.20
2018-11-21T04:50:05.752Z,-0.20
2018-11-21T04:52:34.664Z,-0.16
2018-11-21T04:55:22.480Z,-0.15
2018-11-21T05:03:19.812Z,-0.34
2018-11-21T05:05:48.463Z,-0.24
2018-11-21T05:08:36.287Z,-0.30
2018-11-21T05:11:24.081Z,-0.28
2018-11-21T05:14:11.859Z,-0.36
2018-11-21T05:19:15.396Z,-0.34
2018-11-21T05:22:03.203Z,-0.41
2018-11-21T05:24:50.900Z,-0.33
2018-11-21T05:27:38.676Z,-0.36
2018-11-21T05:30:26.620Z,-0.28
2018-11-21T05:33:14.443Z,-0.39
2018-11-21T05:36:02.278Z,-0.41
2018-11-21T05:38:30.968Z,-0.47
2018-11-21T05:40:59.625Z,-0.43
2018-11-21T05:43:28.544Z,-0.48
2018-11-21T05:49:06.005Z,-0.49
2018-11-21T05:51:41.123Z,-0.35
2018-11-21T05:54:10.022Z,-0.36
2018-11-21T05:57:00.756Z,-0.48
2018-11-21T05:59:29.857Z,-0.50
2018-11-21T06:02:17.661Z,-0.67
2018-11-21T06:04:46.546Z,-0.49
2018-11-21T06:07:15.377Z,-0.50
2018-11-21T06:09:45.996Z,-0.45
2018-11-21T06:12:36.157Z,-0.50
2018-11-21T06:18:16.251Z,-0.38
2018-11-21T06:23:54.613Z,-0.46
2018-11-21T06:26:23.502Z,-0.51
2018-11-21T06:29:11.299Z,-0.65
2018-11-21T06:31:39.977Z,-0.60
2018-11-21T06:34:08.788Z,-0.56
2018-11-21T06:39:29.547Z,-0.63
2018-11-21T06:42:17.370Z,-0.73
2018-11-21T06:44:46.231Z,-0.68
2018-11-21T06:47:34.040Z,-0.78
2018-11-21T06:50:02.904Z,-0.61
2018-11-21T06:55:45.429Z,-0.78
2018-11-21T06:58:14.073Z,-0.92
2018-11-21T07:01:01.870Z,-1.00
2018-11-21T07:03:52.222Z,-1.03
2018-11-21T07:06:41.743Z,-1.02
2018-11-21T07:09:11.462Z,-1.02
2018-11-21T07:11:40.339Z,-0.91
2018-11-21T07:14:28.193Z,-0.85
2018-11-21T07:16:56.901Z,-0.81
2018-11-21T07:19:25.591Z,-0.77
2018-11-21T07:21:55.901Z,-0.77
2018-11-21T07:24:28.828Z,-0.62
2018-11-21T07:27:17.032Z,-0.49
2018-11-21T07:29:45.870Z,-0.37
2018-11-21T07:32:33.731Z,-0.29
2018-11-21T07:37:55.903Z,-0.11
2018-11-21T07:40:43.666Z,-0.16
2018-11-21T07:43:31.493Z,0.08
2018-11-21T07:46:03.263Z,0.21
2018-11-21T07:51:46.450Z,0.20
2018-11-21T07:54:34.282Z,0.33
2018-11-21T07:58:00.470Z,0.37
2018-11-21T08:01:06.637Z,0.44
2018-11-21T08:04:04.685Z,0.59
2018-11-21T08:06:53.272Z,0.75
2018-11-21T08:09:41.871Z,0.78
2018-11-21T08:12:32.217Z,0.71
2018-11-21T08:15:20.908Z,0.78
2018-11-21T08:21:05.821Z,0.69
2018-11-21T08:23:55.625Z,0.79
2018-11-21T08:26:42.557Z,1.04
2018-11-21T08:29:32.326Z,1.09
2018-11-21T08:32:21.106Z,1.10
2018-11-21T08:35:09.440Z,1.06
2018-11-21T08:37:57.418Z,1.18
2018-11-21T08:40:45.239Z,1.32
2018-11-21T08:43:14.137Z,1.27
2018-11-21T08:45:42.854Z,1.36
2018-11-21T08:48:30.639Z,1.26
2018-11-21T08:50:59.317Z,1.39
2018-11-21T08:53:28.238Z,1.42
2018-11-21T08:56:16.048Z,1.40
2018-11-21T08:58:44.753Z,1.48
2018-11-21T09:01:33.068Z,1.46
2018-11-21T09:04:22.219Z,1.54
2018-11-21T09:07:11.731Z,1.43
2018-11-21T09:09:40.751Z,1.60
2018-11-21T09:12:09.599Z,1.57
2018-11-21T09:14:38.485Z,1.55
2018-11-21T09:17:26.338Z,1.52
2018-11-21T09:19:55.042Z,1.69
2018-11-21T09:22:42.845Z,1.73
2018-11-21T09:25:12.460Z,1.78
2018-11-21T09:27:43.101Z,1.78
2018-11-21T09:33:20.882Z,1.73
2018-11-21T09:35:49.890Z,1.73
2018-11-21T09:38:18.575Z,1.81
2018-11-21T09:41:06.378Z,1.75
2018-11-21T09:43:54.151Z,1.88
2018-11-21T09:46:22.858Z,1.95
2018-11-21T09:49:10.669Z,2.00
2018-11-21T09:51:58.497Z,1.92
2018-11-21T09:54:27.167Z,2.09
2018-11-21T09:57:15.068Z,2.09
2018-11-21T09:59:43.722Z,1.95
2018-11-21T10:02:51.018Z,2.07
2018-11-21T10:05:22.574Z,2.24
2018-11-21T10:08:15.393Z,2.24
2018-11-21T10:13:37.453Z,2.32
2018-11-21T10:16:07.063Z,2.33
2018-11-21T10:18:54.896Z,2.26
2018-11-21T10:21:42.554Z,2.33
2018-11-21T10:27:01.547Z,2.51
2018-11-21T10:29:30.514Z,2.48
2018-11-21T10:31:59.406Z,2.49
2018-11-21T10:34:47.234Z,2.51
2018-11-21T10:37:15.981Z,2.63
2018-11-21T10:40:03.838Z,2.51
2018-11-21T10:42:32.599Z,2.42
2018-11-21T10:45:01.569Z,2.48
2018-11-21T10:47:49.312Z,2.51
2018-11-21T10:50:37.085Z,2.55
2018-11-21T10:53:24.885Z,2.48
2018-11-21T10:55:53.782Z,2.52
2018-11-21T10:58:41.985Z,2.69
2018-11-21T11:01:58.432Z,2.69
2018-11-21T11:10:53.191Z,2.49
2018-11-21T11:13:41.024Z,2.45
2018-11-21T11:16:48.086Z,2.33
2018-11-21T11:19:35.943Z,2.31
2018-11-21T11:22:24.147Z,2.50
2018-11-21T11:25:03.684Z,2.48
2018-11-21T11:27:51.446Z,2.58
2018-11-21T11:30:39.660Z,2.61
2018-11-21T11:33:46.644Z,2.61
2018-11-21T11:36:34.386Z,2.71
2018-11-21T11:39:22.257Z,2.51
2018-11-21T11:42:11.027Z,2.61
2018-11-21T11:44:58.862Z,2.46
2018-11-21T11:47:46.767Z,2.41
2018-11-21T11:50:35.501Z,2.39
2018-11-21T11:53:23.227Z,2.55
2018-11-21T11:56:11.174Z,2.36
2018-11-21T11:58:59.264Z,2.42
2018-11-21T12:01:46.936Z,2.33
2018-11-21T12:04:34.786Z,2.33
2018-11-21T12:07:23.863Z,2.22
2018-11-21T12:10:11.904Z,2.17
2018-11-21T12:13:19.089Z,2.25
2018-11-21T12:16:27.398Z,2.12
2018-11-21T12:19:16.312Z,2.15
2018-11-21T12:22:04.427Z,2.12
2018-11-21T12:24:52.107Z,2.04
2018-11-21T12:27:39.767Z,2.01
2018-11-21T12:30:28.724Z,2.15
2018-11-21T12:33:16.587Z,2.20
2018-11-21T12:36:04.377Z,2.20
2018-11-21T12:39:11.782Z,2.15
2018-11-21T12:41:59.565Z,2.09
2018-11-21T12:44:47.190Z,2.13
2018-11-21T12:47:35.010Z,2.10
2018-11-21T12:50:42.213Z,2.06
2018-11-21T12:53:29.843Z,2.02
2018-11-21T12:56:17.654Z,1.84
2018-11-21T12:59:05.454Z,1.92
2018-11-21T13:01:41.131Z,1.86
2018-11-21T13:04:30.114Z,2.00
2018-11-21T13:07:37.705Z,2.16
2018-11-21T13:10:45.892Z,1.97
2018-11-21T13:13:53.894Z,1.90
2018-11-21T13:17:01.749Z,1.95
2018-11-21T13:19:50.088Z,2.03
2018-11-21T13:22:37.870Z,2.02
2018-11-21T13:25:25.958Z,2.13
2018-11-21T13:28:13.746Z,2.05
2018-11-21T13:31:01.523Z,2.16
2018-11-21T13:33:49.848Z,2.03
2018-11-21T13:36:37.698Z,1.91
2018-11-21T13:39:30.068Z,2.01
2018-11-21T13:42:19.061Z,2.00
2018-11-21T13:45:07.131Z,1.94
2018-11-21T13:48:14.333Z,2.03
2018-11-21T13:51:01.953Z,1.96
2018-11-21T13:54:09.703Z,1.80
2018-11-21T13:56:59.348Z,1.92
2018-11-21T13:59:28.619Z,1.92
2018-11-21T14:01:57.282Z,1.86
2018-11-21T14:04:26.080Z,1.77
2018-11-21T14:07:13.849Z,1.59
2018-11-21T14:09:42.767Z,1.51
2018-11-21T14:12:30.793Z,1.46
2018-11-21T14:15:19.375Z,1.43
2018-11-21T14:18:07.875Z,1.43
2018-11-21T14:20:36.792Z,1.33
2018-11-21T14:23:24.928Z,1.43
2018-11-21T14:25:53.564Z,1.43
2018-11-21T14:28:22.254Z,1.70
2018-11-21T14:31:10.084Z,1.65
2018-11-21T14:33:58.286Z,1.64
2018-11-21T14:36:45.959Z,1.50
2018-11-21T14:39:15.325Z,1.49
2018-11-21T14:42:08.134Z,1.51
2018-11-21T14:44:51.289Z,1.40
2018-11-21T14:47:19.818Z,1.24
2018-11-21T14:50:20.509Z,1.25
2018-11-21T14:53:09.970Z,1.29
2018-11-21T14:55:57.816Z,1.26
2018-11-21T14:58:26.445Z,1.35
2018-11-21T15:01:14.221Z,1.23
2018-11-21T15:03:42.985Z,1.34
2018-11-21T15:06:30.843Z,1.34
2018-11-21T15:08:59.708Z,1.34
2018-11-21T15:11:47.481Z,1.45
2018-11-21T15:14:16.113Z,1.40
2018-11-21T15:19:19.459Z,1.50
2018-11-21T15:21:48.662Z,1.42
2018-11-21T15:27:26.501Z,1.56
2018-11-21T15:30:00.046Z,1.46
2018-11-21T15:32:24.238Z,1.58
2018-11-21T15:35:12.095Z,1.53
2018-11-21T15:37:42.889Z,1.60
2018-11-21T15:40:31.614Z,1.69
2018-11-21T15:43:00.349Z,1.51
2018-11-21T15:45:29.280Z,1.27
2018-11-21T15:48:18.878Z,1.21
2018-11-21T15:51:08.552Z,1.31
2018-11-21T15:53:37.142Z,1.21
2018-11-21T15:56:24.948Z,1.07
2018-11-21T15:58:53.594Z,0.98
2018-11-21T16:01:22.671Z,1.06
2018-11-21T16:03:52.233Z,1.04
2018-11-21T16:06:20.998Z,0.98
2018-11-21T16:08:49.651Z,1.08
2018-11-21T16:11:18.324Z,1.18
2018-11-21T16:14:06.483Z,1.20
2018-11-21T16:16:55.125Z,1.31
2018-11-21T16:22:19.245Z,1.26
2018-11-21T16:25:07.012Z,1.24
2018-11-21T16:27:35.840Z,1.31
2018-11-21T16:30:25.921Z,1.27
2018-11-21T16:32:54.554Z,1.29
2018-11-21T16:35:42.568Z,1.19
2018-11-21T16:38:11.229Z,1.18
2018-11-21T16:40:59.173Z,1.19
2018-11-21T16:43:28.122Z,1.14
2018-11-21T16:45:57.870Z,1.04
2018-11-21T16:48:45.628Z,0.98
2018-11-21T16:51:33.884Z,0.99
2018-11-21T16:54:02.659Z,1.06
2018-11-21T16:56:50.338Z,1.05
2018-11-21T16:59:18.988Z,1.24
2018-11-21T17:01:47.958Z,1.32
2018-11-21T17:04:16.919Z,1.33
2018-11-21T17:07:04.754Z,1.23
2018-11-21T17:09:54.361Z,1.33
2018-11-21T17:12:22.982Z,1.24
2018-11-21T17:14:51.918Z,1.18
2018-11-21T17:17:39.726Z,1.17
2018-11-21T17:23:17.115Z,1.22
2018-11-21T17:25:46.068Z,1.25
2018-11-21T17:28:54.384Z,1.27
2018-11-21T17:31:43.529Z,1.19
2018-11-21T17:34:32.061Z,1.32
2018-11-21T17:37:00.737Z,1.20
2018-11-21T17:39:30.877Z,1.34
2018-11-21T17:42:20.392Z,1.38
2018-11-21T17:44:50.040Z,1.20
2018-11-21T17:47:18.706Z,1.31
2018-11-21T17:49:47.899Z,1.37
2018-11-21T17:52:16.102Z,1.41
2018-11-21T17:55:03.904Z,1.40
2018-11-21T17:57:32.846Z,1.38
2018-11-21T18:00:01.540Z,1.32
2018-11-21T18:02:49.304Z,1.25
2018-11-21T18:08:27.711Z,1.26
2018-11-21T18:10:56.404Z,1.16
2018-11-21T18:13:25.047Z,1.14
2018-11-21T18:16:13.616Z,1.20
2018-11-21T18:18:43.193Z,1.19
2018-11-21T18:21:31.051Z,1.18
2018-11-21T18:24:18.877Z,1.18
2018-11-21T18:26:47.526Z,1.26
2018-11-21T18:29:16.431Z,1.12
2018-11-21T18:32:05.775Z,1.10
2018-11-21T18:34:36.137Z,1.12
2018-11-21T18:37:05.226Z,1.12
2018-11-21T18:39:34.114Z,1.26
2018-11-21T18:42:03.039Z,1.23
2018-11-21T18:44:50.830Z,1.22
2018-11-21T18:47:19.564Z,1.21
2018-11-21T18:50:11.113Z,1.23
2018-11-21T18:52:37.128Z,1.22
2018-11-21T18:55:09.926Z,1.29
2018-11-21T18:58:00.769Z,1.32
2018-11-21T19:00:32.125Z,1.37
2018-11-21T19:03:01.025Z,1.38
2018-11-21T19:05:29.795Z,1.38
2018-11-21T19:08:17.649Z,1.30
2018-11-21T19:11:05.871Z,1.30
2018-11-21T19:16:41.287Z,1.25
2018-11-21T19:19:29.275Z,1.07
2018-11-21T19:21:57.968Z,1.09
2018-11-21T19:24:26.842Z,1.03
2018-11-21T19:26:55.770Z,1.02
2018-11-21T19:29:24.677Z,1.02
2018-11-21T19:31:53.513Z,1.08
2018-11-21T19:34:22.233Z,1.09
2018-11-21T19:36:51.025Z,0.97
2018-11-21T19:39:38.793Z,0.96
2018-11-21T19:42:07.526Z,0.92
2018-11-21T19:44:55.380Z,0.92
2018-11-21T19:47:24.053Z,0.94
2018-11-21T19:50:11.891Z,0.95
2018-11-21T19:52:59.727Z,1.00
2018-11-21T19:55:47.517Z,0.94
2018-11-21T19:58:16.209Z,0.87
2018-11-21T20:01:04.059Z,0.76
2018-11-21T20:03:32.784Z,0.85
2018-11-21T20:06:01.529Z,0.90
2018-11-21T20:08:30.311Z,0.91
2018-11-21T20:10:59.238Z,0.94
2018-11-21T20:13:47.068Z,0.95
2018-11-21T20:16:15.967Z,1.04
2018-11-21T20:19:03.737Z,0.97
2018-11-21T20:21:32.439Z,1.01
2018-11-21T20:24:01.440Z,1.02
2018-11-21T20:26:30.397Z,1.03
2018-11-21T20:28:59.536Z,1.01
2018-11-21T20:31:28.434Z,0.96
2018-11-21T20:34:16.126Z,1.09
2018-11-21T20:36:44.873Z,1.10
2018-11-21T20:39:32.645Z,1.01
2018-11-21T20:42:20.543Z,0.95
2018-11-21T20:44:49.201Z,1.03
2018-11-21T20:47:18.074Z,0.99
2018-11-21T20:50:05.943Z,0.94
2018-11-21T20:52:34.649Z,0.99
2018-11-21T20:55:29.389Z,1.00
2018-11-21T20:57:58.327Z,1.02
2018-11-21T21:00:46.114Z,1.00
2018-11-21T21:03:14.816Z,1.02
2018-11-21T21:06:02.668Z,1.05
2018-11-21T21:08:31.542Z,1.22
2018-11-21T21:11:00.464Z,1.23
2018-11-21T21:13:48.274Z,1.20
2018-11-21T21:16:16.934Z,1.17
2018-11-21T21:19:04.822Z,1.06
2018-11-21T21:21:33.659Z,1.04
2018-11-21T21:24:21.526Z,1.04
2018-11-21T21:26:50.239Z,1.24
2018-11-21T21:29:38.046Z,1.14
2018-11-21T21:32:07.036Z,1.03
2018-11-21T21:34:54.850Z,1.11
2018-11-21T21:37:23.781Z,1.16
2018-11-21T21:40:11.592Z,1.19
2018-11-21T21:42:40.777Z,1.25
2018-11-21T21:45:11.543Z,1.20
2018-11-21T21:47:41.682Z,1.22
2018-11-21T21:50:10.575Z,1.07
2018-11-21T21:53:07.046Z,1.09
2018-11-21T21:55:55.328Z,1.04
2018-11-21T21:58:24.235Z,1.17
2018-11-21T22:00:53.078Z,1.11
2018-11-21T22:03:22.000Z,1.18
2018-11-21T22:06:11.342Z,1.21
2018-11-21T22:09:00.219Z,1.14
2018-11-21T22:11:28.911Z,1.13
2018-11-21T22:13:57.707Z,1.12
2018-11-21T22:16:27.215Z,1.21
2018-11-21T22:19:15.199Z,1.22
2018-11-21T22:21:44.093Z,1.21
2018-11-21T22:24:33.391Z,1.40
2018-11-21T22:27:03.100Z,1.50
2018-11-21T22:29:31.975Z,1.25
2018-11-21T22:32:02.210Z,1.15
2018-11-21T22:34:34.398Z,1.15
2018-11-21T22:37:22.432Z,1.27
2018-11-21T22:39:51.547Z,1.15
2018-11-21T22:42:20.431Z,1.08
2018-11-21T22:45:08.108Z,1.15
2018-11-21T22:47:36.825Z,1.05
2018-11-21T22:50:08.271Z,1.06
2018-11-21T22:55:57.774Z,1.28
2018-11-21T22:59:06.780Z,1.28
2018-11-21T23:01:37.311Z,1.33
2018-11-21T23:04:06.128Z,1.31
2018-11-21T23:06:35.054Z,1.18
2018-11-21T23:09:22.863Z,1.08
2018-11-21T23:12:10.650Z,1.07
2018-11-21T23:14:39.351Z,1.04
2018-11-21T23:17:27.164Z,1.12
2018-11-21T23:22:34.558Z,1.32
2018-11-21T23:25:03.265Z,1.30
2018-11-21T23:27:50.987Z,1.31
2018-11-21T23:30:20.259Z,1.30
2018-11-21T23:32:49.848Z,1.21
2018-11-21T23:41:35.520Z,1.09
2018-11-21T23:44:05.974Z,1.12
2018-11-21T23:46:34.855Z,1.13
2018-11-21T23:49:03.800Z,1.11
2018-11-21T23:51:51.558Z,1.14
2018-11-21T23:54:20.308Z,1.17
2018-11-21T23:57:16.111Z,1.20
2018-11-21T23:59:36.755Z,1.33
